createdAt,value
2022-11-24T00:01:08.919Z,58.38
2022-11-24T00:03:41.236Z,59.42
2022-11-24T00:06:15.025Z,63.21
2022-11-24T00:08:47.919Z,66.08
2022-11-24T00:11:21.405Z,65.52
2022-11-24T00:13:53.841Z,63.43
2022-11-24T00:16:28.444Z,62.11
2022-11-24T00:19:02.342Z,61.04
2022-11-24T00:21:34.580Z,60.25
2022-11-24T00:24:06.847Z,57.94
2022-11-24T00:26:39.181Z,56.57
2022-11-24T00:29:12.494Z,57.61
2022-11-24T00:31:44.752Z,59.22
2022-11-24T00:34:17.145Z,63.11
2022-11-24T00:36:49.135Z,66.55
2022-11-24T00:39:21.504Z,65.45
2022-11-24T00:41:53.393Z,63.84
2022-11-24T00:44:25.333Z,63.02
2022-11-24T00:46:57.316Z,61.41
2022-11-24T00:49:29.334Z,60.41
2022-11-24T00:52:01.237Z,59.81
2022-11-24T00:54:33.275Z,57.27
2022-11-24T00:57:05.444Z,56.39
2022-11-24T00:59:37.417Z,57.50
2022-11-24T01:02:09.392Z,59.21
2022-11-24T01:04:41.418Z,63.52
2022-11-24T01:07:13.437Z,66.48
2022-11-24T01:09:45.952Z,65.57
2022-11-24T01:12:17.833Z,63.51
2022-11-24T01:14:49.697Z,61.84
2022-11-24T01:17:21.801Z,60.92
2022-11-24T01:19:53.700Z,59.93
2022-11-24T01:22:27.608Z,57.67
2022-11-24T01:24:59.570Z,56.73
2022-11-24T01:27:31.785Z,57.95
2022-11-24T01:30:03.816Z,59.85
2022-11-24T01:32:36.494Z,64.26
2022-11-24T01:35:09.954Z,66.49
2022-11-24T01:37:41.807Z,65.25
2022-11-24T01:40:15.002Z,64.17
2022-11-24T01:42:50.863Z,62.81
2022-11-24T01:45:45.987Z,61.91
2022-11-24T01:48:27.454Z,61.14
2022-11-24T01:51:08.568Z,60.56
2022-11-24T01:53:43.374Z,60.51
2022-11-24T01:56:16.237Z,60.00
2022-11-24T01:58:50.205Z,57.10
2022-11-24T02:01:22.359Z,55.78
2022-11-24T02:03:54.896Z,57.08
2022-11-24T02:06:30.419Z,58.50
2022-11-24T02:09:05.595Z,60.01
2022-11-24T02:11:40.152Z,64.48
2022-11-24T02:14:14.964Z,67.21
2022-11-24T02:16:49.989Z,66.70
2022-11-24T02:19:33.845Z,64.49
2022-11-24T02:22:10.202Z,62.77
2022-11-24T02:24:48.493Z,61.59
2022-11-24T02:27:21.434Z,60.69
2022-11-24T02:29:53.474Z,58.22
2022-11-24T02:32:26.075Z,56.58
2022-11-24T02:35:04.969Z,57.42
2022-11-24T02:37:36.877Z,58.38
2022-11-24T02:40:11.655Z,59.67
2022-11-24T02:42:47.675Z,63.55
2022-11-24T02:45:19.692Z,67.01
2022-11-24T02:47:51.575Z,65.58
2022-11-24T02:50:23.416Z,63.50
2022-11-24T02:52:55.342Z,61.69
2022-11-24T02:55:27.273Z,60.42
2022-11-24T02:57:59.707Z,58.22
2022-11-24T03:00:31.643Z,56.77
2022-11-24T03:03:03.560Z,57.53
2022-11-24T03:05:35.444Z,58.58
2022-11-24T03:08:07.752Z,59.77
2022-11-24T03:10:39.842Z,64.11
2022-11-24T03:13:12.323Z,67.76
2022-11-24T03:15:44.433Z,65.73
2022-11-24T03:18:16.435Z,63.54
2022-11-24T03:20:48.425Z,61.44
2022-11-24T03:23:20.308Z,60.00
2022-11-24T03:25:52.282Z,56.77
2022-11-24T03:28:24.189Z,55.28
2022-11-24T03:30:56.127Z,56.13
2022-11-24T03:33:28.009Z,57.31
2022-11-24T03:35:59.883Z,58.26
2022-11-24T03:38:32.228Z,59.58
2022-11-24T03:41:04.126Z,63.47
2022-11-24T03:43:40.439Z,67.23
2022-11-24T03:46:15.467Z,65.66
2022-11-24T03:48:47.416Z,63.66
2022-11-24T03:51:19.254Z,62.16
2022-11-24T03:53:51.110Z,60.36
2022-11-24T03:56:22.930Z,60.25
2022-11-24T03:58:54.762Z,57.83
2022-11-24T04:01:26.685Z,56.30
2022-11-24T04:03:58.805Z,57.15
2022-11-24T04:06:30.709Z,58.16
2022-11-24T04:09:04.001Z,59.53
2022-11-24T04:11:53.461Z,63.11
2022-11-24T04:14:25.393Z,66.79
2022-11-24T04:16:57.358Z,66.23
2022-11-24T04:19:29.195Z,64.42
2022-11-24T04:22:01.057Z,63.02
2022-11-24T04:24:33.170Z,61.88
2022-11-24T04:27:05.518Z,60.54
2022-11-24T04:29:37.448Z,57.43
2022-11-24T04:32:09.883Z,56.03
2022-11-24T04:34:42.048Z,56.86
2022-11-24T04:37:14.043Z,57.74
2022-11-24T04:39:46.537Z,58.77
2022-11-24T04:42:18.563Z,59.91
2022-11-24T04:44:50.987Z,63.43
2022-11-24T04:47:25.223Z,66.53
2022-11-24T04:49:57.808Z,66.54
2022-11-24T04:52:31.136Z,64.72
2022-11-24T04:55:03.962Z,63.12
2022-11-24T04:57:35.987Z,62.65
2022-11-24T05:00:11.724Z,63.13
2022-11-24T05:02:43.735Z,61.80
2022-11-24T05:05:15.886Z,60.63
2022-11-24T05:07:48.032Z,60.09
2022-11-24T05:10:38.739Z,57.64
2022-11-24T05:13:13.574Z,55.95
2022-11-24T05:15:45.510Z,56.81
2022-11-24T05:18:18.138Z,58.50
2022-11-24T05:20:50.224Z,59.63
2022-11-24T05:23:22.209Z,62.81
2022-11-24T05:25:55.247Z,66.79
2022-11-24T05:28:27.303Z,67.19
2022-11-24T05:31:02.968Z,65.50
2022-11-24T05:33:35.181Z,64.14
2022-11-24T05:36:08.837Z,62.54
2022-11-24T05:38:40.788Z,61.46
2022-11-24T05:41:12.638Z,61.52
2022-11-24T05:43:44.801Z,61.54
2022-11-24T05:46:16.814Z,60.88
2022-11-24T05:48:48.773Z,61.57
2022-11-24T05:51:20.743Z,61.45
2022-11-24T05:53:52.591Z,60.92
2022-11-24T05:56:25.267Z,60.34
2022-11-24T05:58:57.405Z,58.26
2022-11-24T06:01:29.369Z,56.43
2022-11-24T06:04:01.150Z,57.32
2022-11-24T06:06:33.036Z,58.72
2022-11-24T06:09:04.981Z,60.31
2022-11-24T06:11:37.064Z,64.30
2022-11-24T06:14:11.380Z,66.79
2022-11-24T06:16:43.835Z,66.74
2022-11-24T06:19:16.063Z,66.30
2022-11-24T06:21:48.126Z,65.18
2022-11-24T06:24:20.159Z,63.99
2022-11-24T06:26:52.261Z,63.12
2022-11-24T06:29:24.121Z,62.32
2022-11-24T06:31:55.904Z,61.53
2022-11-24T06:34:27.768Z,60.89
2022-11-24T06:36:59.830Z,60.16
2022-11-24T06:39:31.945Z,58.32
2022-11-24T06:42:04.694Z,56.71
2022-11-24T06:44:37.023Z,57.32
2022-11-24T06:47:09.124Z,58.26
2022-11-24T06:49:41.007Z,59.75
2022-11-24T06:52:13.018Z,64.21
2022-11-24T06:54:44.781Z,67.42
2022-11-24T06:57:16.665Z,66.11
2022-11-24T06:59:48.730Z,64.08
2022-11-24T07:02:22.999Z,61.35
2022-11-24T07:04:54.892Z,61.11
2022-11-24T07:07:26.873Z,60.20
2022-11-24T07:09:58.725Z,58.51
2022-11-24T07:12:34.537Z,57.36
2022-11-24T07:15:07.676Z,57.96
2022-11-24T07:17:40.408Z,60.52
2022-11-24T07:20:13.268Z,63.79
2022-11-24T07:22:45.101Z,66.37
2022-11-24T07:25:17.489Z,66.05
2022-11-24T07:27:50.357Z,64.65
2022-11-24T07:30:22.563Z,63.15
2022-11-24T07:32:59.502Z,61.95
2022-11-24T07:35:31.987Z,61.23
2022-11-24T07:38:03.908Z,61.17
2022-11-24T07:40:36.353Z,59.95
2022-11-24T07:43:08.260Z,57.62
2022-11-24T07:45:40.562Z,56.24
2022-11-24T07:48:12.368Z,57.18
2022-11-24T07:50:44.306Z,60.17
2022-11-24T07:53:16.764Z,62.50
2022-11-24T07:55:55.946Z,66.77
2022-11-24T07:58:32.394Z,64.97
2022-11-24T08:01:12.282Z,62.57
2022-11-24T08:03:44.856Z,61.33
2022-11-24T08:06:27.340Z,60.16
2022-11-24T08:09:02.742Z,57.62
2022-11-24T08:11:34.899Z,55.71
2022-11-24T08:14:07.334Z,56.75
2022-11-24T08:16:39.966Z,58.57
2022-11-24T08:19:12.402Z,60.17
2022-11-24T08:21:44.145Z,62.63
2022-11-24T08:24:17.052Z,66.00
2022-11-24T08:26:49.651Z,64.91
2022-11-24T08:29:21.824Z,62.79
2022-11-24T08:31:54.004Z,61.60
2022-11-24T08:34:28.212Z,60.22
2022-11-24T08:37:00.145Z,57.24
2022-11-24T08:39:32.501Z,55.53
2022-11-24T08:42:04.750Z,55.97
2022-11-24T08:44:37.209Z,58.65
2022-11-24T08:47:09.380Z,59.78
2022-11-24T08:49:42.019Z,60.08
2022-11-24T08:52:13.807Z,63.90
2022-11-24T08:54:46.928Z,67.55
2022-11-24T08:57:21.939Z,65.82
2022-11-24T08:59:53.992Z,62.92
2022-11-24T09:02:25.927Z,60.70
2022-11-24T09:04:57.910Z,58.29
2022-11-24T09:07:30.049Z,56.52
2022-11-24T09:10:02.021Z,56.59
2022-11-24T09:12:33.930Z,56.91
2022-11-24T09:15:06.128Z,58.49
2022-11-24T09:17:38.026Z,60.07
2022-11-24T09:20:11.056Z,62.63
2022-11-24T09:22:43.278Z,66.47
2022-11-24T09:25:15.096Z,65.63
2022-11-24T09:27:46.848Z,64.25
2022-11-24T09:30:19.074Z,61.39
2022-11-24T09:32:50.931Z,58.77
2022-11-24T09:35:22.925Z,56.50
2022-11-24T09:37:54.748Z,56.75
2022-11-24T09:40:26.848Z,58.00
2022-11-24T09:43:04.498Z,59.08
2022-11-24T09:46:05.482Z,60.58
2022-11-24T09:48:40.667Z,63.63
2022-11-24T09:51:15.910Z,65.62
2022-11-24T09:53:52.552Z,66.22
2022-11-24T09:56:26.061Z,65.00
2022-11-24T09:59:03.833Z,62.24
2022-11-24T10:01:38.206Z,60.63
2022-11-24T10:04:17.629Z,57.52
2022-11-24T10:06:59.349Z,55.76
2022-11-24T10:09:51.217Z,56.64
2022-11-24T10:12:35.649Z,58.30
2022-11-24T10:15:28.189Z,59.34
2022-11-24T10:18:16.730Z,59.49
2022-11-24T10:20:57.733Z,63.65
2022-11-24T10:23:51.554Z,65.96
2022-11-24T10:26:35.102Z,63.05
2022-11-24T10:29:21.231Z,61.04
2022-11-24T10:31:56.597Z,57.06
2022-11-24T10:34:35.608Z,54.93
2022-11-24T10:37:15.674Z,55.53
2022-11-24T10:40:00.219Z,56.87
2022-11-24T10:42:36.832Z,58.62
2022-11-24T10:45:15.118Z,59.03
2022-11-24T10:47:46.325Z,59.84
2022-11-24T10:50:24.394Z,59.46
2022-11-24T10:53:04.390Z,63.40
2022-11-24T10:56:06.984Z,66.97
2022-11-24T10:58:40.104Z,66.14
2022-11-24T11:01:29.857Z,63.11
2022-11-24T11:04:02.651Z,60.48
2022-11-24T11:06:36.447Z,56.54
2022-11-24T11:09:21.174Z,53.96
2022-11-24T11:11:56.922Z,53.98
2022-11-24T11:14:35.770Z,55.17
2022-11-24T11:17:33.822Z,56.29
2022-11-24T11:20:06.362Z,56.99
2022-11-24T11:22:40.040Z,55.71
2022-11-24T11:25:23.099Z,58.73
2022-11-24T11:28:19.095Z,60.19
2022-11-24T11:31:19.779Z,62.26
2022-11-24T11:34:06.229Z,67.58
2022-11-24T11:36:46.164Z,68.15
2022-11-24T11:39:33.266Z,65.36
2022-11-24T11:42:45.185Z,63.02
2022-11-24T11:45:16.396Z,61.17
2022-11-24T11:47:52.872Z,56.99
2022-11-24T11:50:31.501Z,54.15
2022-11-24T11:53:16.428Z,54.03
2022-11-24T11:55:58.714Z,55.00
2022-11-24T11:59:03.149Z,56.42
2022-11-24T12:01:55.028Z,58.39
2022-11-24T12:04:46.767Z,58.22
2022-11-24T12:07:43.463Z,59.15
2022-11-24T12:10:25.659Z,60.66
2022-11-24T12:13:23.183Z,60.87
2022-11-24T12:15:58.584Z,65.13
2022-11-24T12:18:57.156Z,66.25
2022-11-24T12:21:35.513Z,64.87
2022-11-24T12:24:19.016Z,62.04
2022-11-24T12:26:54.392Z,57.66
2022-11-24T12:29:46.200Z,55.16
2022-11-24T12:32:33.281Z,54.86
2022-11-24T12:35:16.598Z,55.64
2022-11-24T12:38:01.822Z,57.66
2022-11-24T12:40:47.182Z,57.98
2022-11-24T12:43:28.071Z,58.75
2022-11-24T12:46:05.578Z,60.77
2022-11-24T12:48:49.409Z,63.00
2022-11-24T12:51:26.978Z,67.07
2022-11-24T12:54:02.816Z,67.53
2022-11-24T12:56:42.623Z,65.28
2022-11-24T12:59:34.715Z,62.42
2022-11-24T13:02:21.418Z,57.72
2022-11-24T13:05:02.379Z,54.92
2022-11-24T13:07:45.662Z,54.83
2022-11-24T13:10:55.283Z,55.81
2022-11-24T13:13:50.160Z,56.36
2022-11-24T13:16:48.696Z,57.89
2022-11-24T13:19:20.724Z,59.33
2022-11-24T13:22:14.839Z,60.50
2022-11-24T13:24:47.243Z,64.67
2022-11-24T13:27:43.984Z,68.35
2022-11-24T13:30:49.614Z,66.09
2022-11-24T13:33:38.816Z,63.06
2022-11-24T13:36:34.131Z,58.38
2022-11-24T13:39:19.496Z,55.12
2022-11-24T13:42:41.476Z,55.28
2022-11-24T13:45:03.305Z,55.53
2022-11-24T13:47:41.115Z,57.45
2022-11-24T13:50:26.301Z,58.68
2022-11-24T13:53:09.504Z,59.64
2022-11-24T13:55:42.930Z,60.34
2022-11-24T13:58:35.553Z,63.58
2022-11-24T14:01:14.863Z,67.68
2022-11-24T14:07:07.929Z,64.52
2022-11-24T14:09:44.603Z,62.45
2022-11-24T14:12:20.420Z,60.50
2022-11-24T14:14:55.744Z,57.33
2022-11-24T14:17:29.027Z,55.15
2022-11-24T14:20:01.108Z,55.22
2022-11-24T14:22:40.342Z,56.08
2022-11-24T14:25:32.104Z,57.16
2022-11-24T14:28:04.067Z,58.02
2022-11-24T14:30:35.933Z,59.31
2022-11-24T14:33:13.820Z,60.34
2022-11-24T14:35:48.505Z,64.46
2022-11-24T14:38:20.433Z,67.47
2022-11-24T14:40:54.150Z,65.62
2022-11-24T14:43:29.871Z,63.09
2022-11-24T14:46:04.587Z,60.33
2022-11-24T14:48:39.812Z,55.95
2022-11-24T14:51:20.910Z,54.64
2022-11-24T14:53:56.481Z,56.24
2022-11-24T14:56:30.110Z,58.10
2022-11-24T14:59:02.176Z,59.91
2022-11-24T15:01:36.299Z,64.36
2022-11-24T15:04:38.818Z,67.49
2022-11-24T15:07:20.011Z,65.04
2022-11-24T15:09:54.185Z,62.35
2022-11-24T15:12:30.789Z,61.29
2022-11-24T15:15:05.255Z,60.01
2022-11-24T15:17:37.218Z,57.41
2022-11-24T15:20:18.107Z,56.75
2022-11-24T15:22:52.454Z,58.14
2022-11-24T15:25:33.782Z,60.15
2022-11-24T15:28:05.663Z,64.58
2022-11-24T15:30:38.221Z,67.60
2022-11-24T15:33:16.750Z,65.97
2022-11-24T15:35:48.835Z,64.22
2022-11-24T15:38:20.756Z,62.87
2022-11-24T15:40:55.045Z,62.07
2022-11-24T15:43:32.598Z,60.77
2022-11-24T15:46:05.755Z,58.02
2022-11-24T15:48:37.923Z,56.63
2022-11-24T15:51:15.857Z,57.30
2022-11-24T15:53:51.170Z,59.12
2022-11-24T15:56:27.359Z,61.22
2022-11-24T15:58:59.786Z,65.10
2022-11-24T16:01:33.964Z,68.41
2022-11-24T16:04:06.230Z,67.22
2022-11-24T16:06:38.190Z,65.59
2022-11-24T16:09:16.083Z,63.56
2022-11-24T16:11:48.387Z,61.67
2022-11-24T16:14:20.258Z,60.20
2022-11-24T16:16:52.431Z,57.50
2022-11-24T16:19:24.423Z,56.26
2022-11-24T16:21:56.332Z,57.48
2022-11-24T16:24:28.160Z,59.60
2022-11-24T16:26:59.984Z,62.93
2022-11-24T16:29:36.893Z,66.87
2022-11-24T16:32:08.793Z,66.21
2022-11-24T16:34:40.619Z,64.88
2022-11-24T16:37:12.898Z,62.91
2022-11-24T16:39:50.010Z,61.02
2022-11-24T16:42:22.280Z,58.01
2022-11-24T16:44:54.382Z,56.56
2022-11-24T16:47:26.311Z,57.78
2022-11-24T16:49:58.137Z,59.93
2022-11-24T16:52:30.145Z,64.18
2022-11-24T16:55:02.647Z,67.62
2022-11-24T16:57:35.371Z,65.63
2022-11-24T17:00:09.876Z,63.21
2022-11-24T17:02:41.994Z,61.52
2022-11-24T17:05:14.127Z,60.40
2022-11-24T17:07:46.050Z,58.17
2022-11-24T17:10:18.940Z,57.66
2022-11-24T17:12:50.820Z,59.15
2022-11-24T17:15:32.955Z,61.53
2022-11-24T17:18:24.185Z,66.55
2022-11-24T17:21:03.175Z,68.30
2022-11-24T17:23:38.153Z,65.95
2022-11-24T17:26:11.793Z,64.15
2022-11-24T17:28:44.262Z,62.67
2022-11-24T17:31:21.308Z,61.16
2022-11-24T17:33:54.482Z,60.11
2022-11-24T17:36:26.812Z,59.88
2022-11-24T17:39:01.502Z,57.65
2022-11-24T17:41:34.681Z,56.57
2022-11-24T17:44:08.653Z,58.32
2022-11-24T17:46:40.863Z,60.04
2022-11-24T17:49:13.324Z,64.66
2022-11-24T17:51:46.416Z,67.45
2022-11-24T17:57:12.198Z,64.54
2022-11-24T17:59:44.024Z,63.23
2022-11-24T18:02:16.206Z,61.51
2022-11-24T18:04:48.823Z,60.43
2022-11-24T18:07:20.737Z,57.98
2022-11-24T18:09:52.579Z,56.08
2022-11-24T18:12:24.397Z,56.89
2022-11-24T18:14:56.314Z,58.60
2022-11-24T18:17:29.171Z,59.89
2022-11-24T18:20:01.233Z,63.52
2022-11-24T18:22:57.773Z,66.60
2022-11-24T18:25:25.161Z,66.34
2022-11-24T18:27:57.359Z,65.54
2022-11-24T18:30:29.334Z,62.80
2022-11-24T18:33:02.146Z,62.05
2022-11-24T18:35:34.066Z,60.86
2022-11-24T18:38:05.943Z,60.13
2022-11-24T18:40:41.514Z,57.92
2022-11-24T18:43:13.637Z,56.12
2022-11-24T18:45:46.625Z,56.80
2022-11-24T18:48:18.532Z,57.97
2022-11-24T18:50:53.664Z,59.51
2022-11-24T18:53:26.840Z,62.59
2022-11-24T18:56:00.832Z,67.03
2022-11-24T18:58:34.129Z,67.10
2022-11-24T19:01:10.896Z,65.00
2022-11-24T19:03:48.695Z,63.81
2022-11-24T19:06:24.170Z,62.40
2022-11-24T19:08:56.969Z,60.87
2022-11-24T19:11:32.432Z,60.32
2022-11-24T19:14:05.550Z,60.10
2022-11-24T19:16:38.310Z,57.78
2022-11-24T19:19:11.759Z,56.24
2022-11-24T19:21:43.725Z,57.05
2022-11-24T19:24:15.582Z,58.27
2022-11-24T19:26:47.696Z,59.93
2022-11-24T19:29:19.673Z,63.75
2022-11-24T19:31:51.577Z,67.84
2022-11-24T19:34:23.575Z,66.74
2022-11-24T19:36:55.387Z,64.99
2022-11-24T19:39:27.493Z,63.16
2022-11-24T19:42:00.040Z,62.12
2022-11-24T19:44:31.954Z,60.66
2022-11-24T19:47:03.775Z,60.43
2022-11-24T19:49:35.637Z,60.07
2022-11-24T19:52:07.626Z,58.24
2022-11-24T19:54:39.423Z,56.61
2022-11-24T19:57:11.354Z,57.13
2022-11-24T19:59:43.447Z,58.45
2022-11-24T20:02:15.364Z,59.71
2022-11-24T20:04:47.247Z,63.49
2022-11-24T20:07:20.639Z,66.68
2022-11-24T20:09:52.599Z,66.14
2022-11-24T20:12:24.457Z,65.65
2022-11-24T20:14:56.711Z,64.17
2022-11-24T20:17:30.991Z,63.80
2022-11-24T20:20:02.991Z,63.05
2022-11-24T20:22:34.856Z,61.96
2022-11-24T20:25:08.128Z,61.47
2022-11-24T20:27:39.920Z,61.07
2022-11-24T20:30:13.877Z,60.96
2022-11-24T20:32:45.817Z,59.94
2022-11-24T20:35:18.516Z,58.44
2022-11-24T20:37:50.504Z,56.80
2022-11-24T20:40:22.354Z,57.56
2022-11-24T20:42:54.172Z,59.31
2022-11-24T20:45:27.576Z,62.22
2022-11-24T20:47:59.605Z,66.05
2022-11-24T20:50:31.381Z,67.06
2022-11-24T20:53:03.258Z,65.57
2022-11-24T20:55:35.051Z,64.53
2022-11-24T20:58:07.516Z,63.21
2022-11-24T21:00:39.466Z,62.21
2022-11-24T21:03:11.279Z,61.17
2022-11-24T21:05:43.169Z,60.20
2022-11-24T21:08:15.036Z,57.01
2022-11-24T21:10:56.304Z,55.49
2022-11-24T21:13:28.793Z,55.83
2022-11-24T21:16:00.773Z,57.60
2022-11-24T21:18:34.803Z,58.98
2022-11-24T21:21:07.049Z,62.07
2022-11-24T21:23:39.218Z,66.53
2022-11-24T21:26:16.645Z,66.91
2022-11-24T21:28:49.995Z,66.82
2022-11-24T21:31:23.061Z,65.77
2022-11-24T21:33:56.121Z,64.31
2022-11-24T21:36:28.376Z,62.88
2022-11-24T21:39:01.815Z,61.45
2022-11-24T21:41:34.992Z,60.41
2022-11-24T21:44:07.352Z,57.51
2022-11-24T21:46:44.997Z,55.53
2022-11-24T21:49:19.842Z,56.17
2022-11-24T21:51:55.461Z,57.42
2022-11-24T21:54:27.807Z,59.35
2022-11-24T21:56:59.620Z,63.37
2022-11-24T21:59:31.895Z,67.98
2022-11-24T22:02:05.846Z,67.16
2022-11-24T22:04:40.626Z,64.99
2022-11-24T22:07:12.469Z,63.38
2022-11-24T22:09:46.388Z,61.82
2022-11-24T22:12:18.665Z,60.85
2022-11-24T22:14:50.466Z,59.32
2022-11-24T22:17:22.598Z,56.08
2022-11-24T22:19:54.350Z,55.83
2022-11-24T22:22:26.116Z,56.97
2022-11-24T22:24:58.252Z,58.33
2022-11-24T22:27:30.012Z,60.08
2022-11-24T22:30:02.697Z,63.62
2022-11-24T22:32:34.547Z,67.34
2022-11-24T22:35:07.792Z,67.25
2022-11-24T22:37:40.147Z,66.80
2022-11-24T22:40:13.764Z,65.14
2022-11-24T22:42:45.748Z,62.58
2022-11-24T22:45:17.774Z,61.91
2022-11-24T22:47:49.707Z,60.50
2022-11-24T22:50:21.621Z,60.41
2022-11-24T22:52:53.923Z,60.82
2022-11-24T22:55:25.682Z,60.14
2022-11-24T22:57:57.685Z,57.52
2022-11-24T23:00:29.426Z,55.70
2022-11-24T23:03:01.246Z,56.47
2022-11-24T23:05:35.102Z,57.64
2022-11-24T23:08:07.399Z,59.54
2022-11-24T23:10:39.869Z,63.45
2022-11-24T23:13:11.683Z,66.86
2022-11-24T23:15:43.464Z,65.62
2022-11-24T23:18:15.261Z,65.94
2022-11-24T23:20:47.389Z,65.46
2022-11-24T23:23:19.369Z,63.91
2022-11-24T23:25:51.365Z,62.18
2022-11-24T23:28:23.136Z,60.62
2022-11-24T23:30:54.964Z,57.73
2022-11-24T23:33:26.722Z,55.88
2022-11-24T23:36:00.394Z,56.30
2022-11-24T23:38:33.442Z,57.50
2022-11-24T23:41:07.276Z,59.01
2022-11-24T23:43:40.332Z,63.14
2022-11-24T23:46:14.814Z,67.44
2022-11-24T23:48:47.328Z,65.62
2022-11-24T23:51:20.623Z,64.19
2022-11-24T23:53:53.043Z,63.15
2022-11-24T23:56:26.636Z,62.31
2022-11-24T23:58:58.372Z,61.40
